YMML/MEL METAR and TAF weather

Enter ICAO airport designator
Station Type Date Time Source
YMML METAR 2019/02/16 07:00 UTC NOAA

YMML 160700Z 18013KT 9999 FEW045 SCT220 BKN270 23/13 Q1015


Station Type Date Time Source
YMML Decoded METAR 2019/02/16 07:00 UTC NOAA

Melbourne Airport, Australia (YMML) 37-40S 144-50E 141M
Feb 16, 2019 - 02:00 AM EST / 2019.02.16 0700 UTC
Wind: from the S (180 degrees) at 15 MPH (13 KT):0
Visibility: greater than 7 mile(s):0
Sky conditions: mostly cloudy
Temperature: 73 F (23 C)
Dew Point: 55 F (13 C)
Relative Humidity: 53%
Pressure (altimeter): 29.97 in. Hg (1015 hPa)
ob: YMML 160700Z 18013KT 9999 FEW045 SCT220 BKN270 23/13 Q1015
cycle: 7

Station Type Date Time Source
YMML TAF 2019/02/16 06:06 UTC NOAA

TAF TAF
AMD YMML 160503Z 1606/1712 18014KT CAVOK
BECMG 1611/1613 VRB04KT 9999 FEW004 BKN008
FM161800 VRB05KT 9999 BKN004
BECMG 1622/1624 VRB05KT CAVOK
FM170200 20014KT CAVOK
FM171000 VRB04KT 9999 FEW010


Example: see airport list